createdAt,value
2023-05-10T00:02:25.826Z,3.58
2023-05-10T00:04:53.459Z,3.00
2023-05-10T00:07:20.098Z,2.85
2023-05-10T00:09:46.615Z,2.88
2023-05-10T00:12:13.140Z,3.10
2023-05-10T00:14:39.598Z,4.10
2023-05-10T00:17:06.150Z,4.05
2023-05-10T00:19:33.145Z,3.72
2023-05-10T00:21:59.627Z,4.20
2023-05-10T00:24:26.227Z,3.03
2023-05-10T00:26:53.154Z,3.40
2023-05-10T00:29:20.517Z,3.80
2023-05-10T00:31:47.165Z,4.18
2023-05-10T00:34:13.694Z,5.28
2023-05-10T00:36:40.377Z,3.95
2023-05-10T00:39:07.143Z,3.20
2023-05-10T00:41:33.795Z,3.38
2023-05-10T00:44:00.565Z,3.33
2023-05-10T00:46:27.914Z,5.03
2023-05-10T00:48:54.675Z,4.57
2023-05-10T00:51:21.735Z,3.85
2023-05-10T00:53:50.394Z,3.85
2023-05-10T00:56:17.293Z,4.25
2023-05-10T00:58:44.110Z,4.40
2023-05-10T01:01:11.847Z,4.60
2023-05-10T01:03:38.587Z,4.22
2023-05-10T01:06:05.501Z,4.13
2023-05-10T01:08:32.390Z,4.05
2023-05-10T01:10:59.271Z,3.75
2023-05-10T01:13:36.052Z,3.70
2023-05-10T01:16:05.920Z,4.43
2023-05-10T01:18:35.157Z,4.32
2023-05-10T01:21:28.493Z,4.18
2023-05-10T01:24:33.343Z,4.45
2023-05-10T01:27:14.198Z,2.72
2023-05-10T01:30:14.195Z,4.40
2023-05-10T01:32:46.282Z,3.72
2023-05-10T01:35:38.464Z,2.92
2023-05-10T01:38:31.394Z,3.65
2023-05-10T01:41:18.500Z,3.83
2023-05-10T01:43:58.374Z,3.30
2023-05-10T01:46:42.851Z,3.13
2023-05-10T01:49:16.017Z,4.07
2023-05-10T01:51:53.535Z,5.13
2023-05-10T01:54:22.677Z,3.92
2023-05-10T01:56:56.456Z,3.33
2023-05-10T01:59:25.497Z,3.67
2023-05-10T02:01:53.478Z,2.47
2023-05-10T02:04:23.441Z,3.45
2023-05-10T02:06:52.175Z,2.72
2023-05-10T02:09:20.997Z,3.40
2023-05-10T02:11:50.275Z,4.22
2023-05-10T02:14:17.722Z,3.42
2023-05-10T02:16:45.815Z,3.92
2023-05-10T02:19:13.260Z,4.35
2023-05-10T02:21:41.068Z,3.33
2023-05-10T02:24:09.603Z,3.10
2023-05-10T02:26:37.309Z,4.38
2023-05-10T02:29:05.565Z,2.92
2023-05-10T02:31:34.301Z,2.97
2023-05-10T02:34:02.515Z,3.10
2023-05-10T02:36:30.106Z,5.05
2023-05-10T02:38:57.914Z,3.72
2023-05-10T02:41:26.012Z,2.90
2023-05-10T02:43:58.175Z,3.40
2023-05-10T02:46:24.999Z,3.60
2023-05-10T02:48:51.786Z,4.43
2023-05-10T02:51:20.272Z,3.20
2023-05-10T02:53:49.434Z,3.40
2023-05-10T02:56:26.057Z,3.35
2023-05-10T02:58:53.743Z,3.42
2023-05-10T03:01:20.301Z,3.38
2023-05-10T03:03:46.858Z,3.00
2023-05-10T03:06:13.504Z,4.20
2023-05-10T03:08:40.139Z,3.42
2023-05-10T03:11:15.561Z,3.03
2023-05-10T03:14:03.086Z,4.25
2023-05-10T03:16:36.813Z,4.07
2023-05-10T03:19:13.901Z,3.72
2023-05-10T03:21:44.341Z,2.40
2023-05-10T03:24:13.350Z,3.85
2023-05-10T03:26:41.149Z,2.17
2023-05-10T03:29:09.037Z,2.30
2023-05-10T03:31:35.718Z,1.63
2023-05-10T03:34:02.306Z,2.90
2023-05-10T03:36:29.184Z,2.35
2023-05-10T03:38:55.732Z,2.72
2023-05-10T03:41:22.398Z,1.70
2023-05-10T03:43:48.988Z,2.22
2023-05-10T03:46:15.683Z,2.13
2023-05-10T03:48:42.205Z,2.85
2023-05-10T03:51:08.739Z,2.38
2023-05-10T03:53:35.287Z,2.70
2023-05-10T03:56:01.816Z,2.22
2023-05-10T03:58:28.378Z,2.15
2023-05-10T04:00:55.195Z,2.88
2023-05-10T04:03:21.907Z,2.13
2023-05-10T04:05:48.538Z,2.80
2023-05-10T04:08:17.295Z,2.45
2023-05-10T04:10:43.859Z,2.67
2023-05-10T04:13:10.824Z,2.35
2023-05-10T04:15:37.628Z,2.17
2023-05-10T04:18:06.493Z,2.13
2023-05-10T04:20:34.900Z,1.88
2023-05-10T04:23:01.489Z,3.13
2023-05-10T04:25:28.093Z,4.32
2023-05-10T04:27:55.171Z,2.22
2023-05-10T04:30:21.828Z,2.28
2023-05-10T04:32:48.520Z,2.28
2023-05-10T04:35:15.829Z,2.65
2023-05-10T04:37:42.293Z,2.97
2023-05-10T04:40:09.533Z,3.17
2023-05-10T04:42:36.037Z,2.00
2023-05-10T04:45:02.579Z,2.17
2023-05-10T04:47:29.145Z,2.50
2023-05-10T04:49:55.667Z,2.05
2023-05-10T04:52:22.206Z,2.58
2023-05-10T04:54:48.711Z,2.17
2023-05-10T04:57:15.244Z,2.50
2023-05-10T04:59:41.806Z,2.40
2023-05-10T05:02:08.435Z,2.80
2023-05-10T05:04:35.069Z,2.67
2023-05-10T05:07:01.636Z,2.85
2023-05-10T05:09:28.116Z,2.83
2023-05-10T05:11:55.679Z,2.30
2023-05-10T05:14:22.233Z,2.47
2023-05-10T05:16:48.839Z,2.15
2023-05-10T05:19:15.561Z,2.42
2023-05-10T05:21:42.177Z,3.00
2023-05-10T05:24:09.599Z,2.40
2023-05-10T05:26:36.114Z,3.22
2023-05-10T05:29:02.872Z,3.15
2023-05-10T05:31:29.836Z,3.00
2023-05-10T05:33:56.630Z,2.92
2023-05-10T05:36:23.998Z,2.75
2023-05-10T05:38:50.623Z,3.05
2023-05-10T05:41:17.166Z,3.67
2023-05-10T05:43:43.795Z,2.65
2023-05-10T05:46:10.457Z,2.38
2023-05-10T05:48:37.080Z,2.67
2023-05-10T05:51:05.160Z,2.20
2023-05-10T05:53:33.692Z,2.72
2023-05-10T05:56:00.275Z,2.20
2023-05-10T05:58:26.995Z,2.10
2023-05-10T06:00:54.008Z,3.10
2023-05-10T06:03:21.262Z,2.65
2023-05-10T06:05:48.781Z,3.90
2023-05-10T06:08:15.626Z,2.92
2023-05-10T06:10:42.141Z,3.15
2023-05-10T06:13:08.917Z,3.45
2023-05-10T06:15:36.096Z,2.97
2023-05-10T06:18:02.880Z,2.95
2023-05-10T06:20:29.529Z,3.40
2023-05-10T06:22:56.300Z,3.55
2023-05-10T06:25:22.799Z,3.63
2023-05-10T06:27:53.423Z,3.25
2023-05-10T06:30:21.296Z,3.83
2023-05-10T06:32:48.000Z,4.82
2023-05-10T06:35:14.667Z,4.38
2023-05-10T06:37:41.271Z,3.33
2023-05-10T06:40:08.600Z,4.15
2023-05-10T06:42:35.225Z,3.08
2023-05-10T06:45:01.888Z,2.58
2023-05-10T06:47:28.561Z,3.33
2023-05-10T06:49:55.132Z,3.15
2023-05-10T06:52:21.832Z,3.13
2023-05-10T06:54:48.354Z,3.33
2023-05-10T06:57:27.612Z,3.58
2023-05-10T06:59:57.689Z,3.42
2023-05-10T07:02:24.236Z,3.42
2023-05-10T07:04:52.861Z,2.90
2023-05-10T07:07:20.098Z,2.85
2023-05-10T07:09:47.040Z,3.50
2023-05-10T07:12:15.397Z,3.53
2023-05-10T07:14:43.135Z,4.43
2023-05-10T07:17:09.898Z,2.60
2023-05-10T07:19:36.946Z,2.97
2023-05-10T07:22:03.719Z,3.15
2023-05-10T07:24:30.889Z,2.92
2023-05-10T07:26:57.418Z,3.25
2023-05-10T07:29:24.073Z,3.08
2023-05-10T07:31:50.646Z,2.80
2023-05-10T07:34:17.221Z,2.03
2023-05-10T07:36:43.994Z,3.47
2023-05-10T07:39:12.646Z,3.05
2023-05-10T07:41:40.996Z,3.40
2023-05-10T07:44:07.516Z,2.97
2023-05-10T07:46:34.003Z,3.03
2023-05-10T07:49:00.823Z,3.40
2023-05-10T07:51:27.494Z,2.83
2023-05-10T07:53:53.989Z,3.88
2023-05-10T07:56:27.561Z,2.90
2023-05-10T07:58:55.318Z,3.85
2023-05-10T08:01:21.903Z,2.38
2023-05-10T08:03:48.660Z,2.88
2023-05-10T08:06:16.524Z,3.50
2023-05-10T08:08:43.279Z,1.75
2023-05-10T08:11:10.042Z,2.70
2023-05-10T08:13:36.680Z,4.05
2023-05-10T08:16:03.313Z,3.05
2023-05-10T08:18:29.922Z,3.38
2023-05-10T08:20:56.548Z,2.35
2023-05-10T08:23:23.042Z,2.60
2023-05-10T08:25:49.596Z,3.15
2023-05-10T08:28:16.173Z,2.85
2023-05-10T08:30:42.735Z,2.95
2023-05-10T08:33:09.479Z,2.22
2023-05-10T08:35:36.085Z,3.72
2023-05-10T08:38:02.991Z,3.05
2023-05-10T08:40:29.566Z,2.67
2023-05-10T08:43:04.157Z,2.15
2023-05-10T08:45:34.704Z,3.55
2023-05-10T08:48:03.170Z,3.17
2023-05-10T08:50:31.109Z,3.60
2023-05-10T08:53:02.435Z,2.60
2023-05-10T08:55:31.221Z,1.92
2023-05-10T08:57:57.953Z,2.30
2023-05-10T09:00:24.758Z,1.55
2023-05-10T09:02:51.493Z,2.30
2023-05-10T09:05:18.941Z,2.00
2023-05-10T09:07:45.955Z,1.48
2023-05-10T09:10:14.184Z,2.35
2023-05-10T09:12:41.940Z,1.60
2023-05-10T09:15:10.813Z,2.65
2023-05-10T09:17:38.213Z,3.38
2023-05-10T09:20:05.850Z,2.55
2023-05-10T09:22:32.760Z,1.73
2023-05-10T09:25:09.445Z,2.38
2023-05-10T09:27:36.957Z,1.85
2023-05-10T09:30:06.307Z,2.53
2023-05-10T09:32:43.037Z,2.17
2023-05-10T09:35:14.230Z,1.70
2023-05-10T09:37:42.981Z,1.90
2023-05-10T09:40:17.000Z,2.28
2023-05-10T09:42:52.704Z,1.45
2023-05-10T09:45:19.529Z,1.90
2023-05-10T09:47:47.044Z,1.77
2023-05-10T09:50:13.862Z,1.95
2023-05-10T09:52:52.203Z,1.60
2023-05-10T09:55:20.924Z,1.30
2023-05-10T09:57:49.185Z,1.92
2023-05-10T10:00:20.437Z,2.50
2023-05-10T10:02:49.149Z,2.30
2023-05-10T10:05:16.064Z,2.47
2023-05-10T10:07:43.215Z,2.28
2023-05-10T10:10:13.260Z,1.70
2023-05-10T10:12:41.595Z,2.10
2023-05-10T10:15:09.665Z,2.33
2023-05-10T10:17:39.897Z,1.50
2023-05-10T10:20:10.484Z,1.63
2023-05-10T10:22:38.856Z,1.75
2023-05-10T10:25:06.748Z,1.60
2023-05-10T10:27:59.176Z,2.17
2023-05-10T10:30:32.644Z,2.20
2023-05-10T10:33:36.670Z,1.35
2023-05-10T10:36:05.110Z,2.05
2023-05-10T10:39:01.687Z,1.17
2023-05-10T10:41:36.700Z,1.15
2023-05-10T10:44:40.157Z,1.23
2023-05-10T10:47:19.619Z,1.40
2023-05-10T10:49:52.619Z,1.40
2023-05-10T10:52:23.855Z,1.20
2023-05-10T10:55:10.785Z,1.73
2023-05-10T10:57:45.764Z,1.85
2023-05-10T11:00:32.263Z,1.95
2023-05-10T11:03:18.022Z,1.75
2023-05-10T11:05:48.707Z,1.52
2023-05-10T11:08:31.519Z,1.92
2023-05-10T11:11:01.196Z,1.52
2023-05-10T11:13:32.912Z,2.63
2023-05-10T11:16:10.696Z,3.00
2023-05-10T11:18:38.064Z,2.20
2023-05-10T11:21:06.226Z,2.72
2023-05-10T11:23:48.278Z,2.25
2023-05-10T11:26:15.322Z,1.40
2023-05-10T11:28:46.453Z,1.98
2023-05-10T11:31:20.755Z,1.65
2023-05-10T11:36:29.510Z,2.30
2023-05-10T11:38:57.720Z,2.13
2023-05-10T11:41:25.462Z,2.47
2023-05-10T11:43:56.492Z,1.95
2023-05-10T11:46:25.641Z,2.22
2023-05-10T11:48:58.340Z,1.73
2023-05-10T11:51:26.292Z,1.42
2023-05-10T11:53:57.412Z,1.27
2023-05-10T11:56:24.719Z,1.77
2023-05-10T11:58:56.796Z,1.63
2023-05-10T12:01:24.796Z,1.50
2023-05-10T12:03:52.598Z,1.25
2023-05-10T12:06:22.673Z,1.25
2023-05-10T12:08:53.484Z,1.48
2023-05-10T12:11:22.743Z,1.02
2023-05-10T12:13:50.868Z,1.10
2023-05-10T12:16:19.655Z,1.23
2023-05-10T12:18:49.485Z,0.90
2023-05-10T12:21:16.585Z,1.25
2023-05-10T12:23:43.424Z,0.93
2023-05-10T12:26:11.219Z,1.15
2023-05-10T12:28:38.775Z,0.80
2023-05-10T12:31:07.109Z,1.05
2023-05-10T12:33:39.924Z,1.77
2023-05-10T12:36:07.745Z,1.00
2023-05-10T12:38:35.517Z,1.20
2023-05-10T12:41:04.618Z,1.20
2023-05-10T12:43:31.786Z,1.45
2023-05-10T12:45:58.402Z,1.67
2023-05-10T12:48:25.016Z,1.08
2023-05-10T12:50:51.712Z,1.08
2023-05-10T12:53:18.208Z,1.52
2023-05-10T12:55:45.418Z,1.42
2023-05-10T12:58:15.836Z,1.52
2023-05-10T13:00:48.059Z,0.95
2023-05-10T13:03:14.635Z,1.23
2023-05-10T13:05:41.179Z,0.98
2023-05-10T13:08:07.773Z,0.85
2023-05-10T13:10:34.280Z,1.05
2023-05-10T13:13:00.992Z,1.00
2023-05-10T13:15:27.712Z,0.75
2023-05-10T13:17:54.838Z,0.77
2023-05-10T13:20:21.619Z,0.82
2023-05-10T13:22:50.543Z,0.98
2023-05-10T13:25:18.075Z,0.50
2023-05-10T13:27:44.860Z,0.80
2023-05-10T13:30:12.347Z,1.08
2023-05-10T13:32:39.457Z,0.98
2023-05-10T13:35:06.758Z,1.33
2023-05-10T13:37:36.443Z,1.10
2023-05-10T13:40:03.003Z,0.93
2023-05-10T13:42:29.485Z,1.00
2023-05-10T13:44:56.045Z,1.10
2023-05-10T13:47:23.398Z,1.15
2023-05-10T13:49:50.489Z,0.77
2023-05-10T13:52:17.067Z,0.70
2023-05-10T13:54:43.646Z,0.80
2023-05-10T13:57:10.145Z,1.33
2023-05-10T13:59:36.598Z,1.00
2023-05-10T14:02:03.488Z,1.63
2023-05-10T14:04:30.712Z,1.45
2023-05-10T14:06:58.180Z,1.08
2023-05-10T14:09:24.673Z,0.88
2023-05-10T14:11:52.125Z,1.00
2023-05-10T14:14:18.592Z,1.27
2023-05-10T14:16:45.792Z,1.02
2023-05-10T14:19:12.913Z,0.90
2023-05-10T14:21:39.473Z,1.05
2023-05-10T14:24:07.654Z,1.00
2023-05-10T14:26:35.334Z,0.80
2023-05-10T14:29:01.979Z,0.93
2023-05-10T14:31:28.642Z,1.10
2023-05-10T14:33:55.179Z,1.35
2023-05-10T14:36:21.712Z,0.85
2023-05-10T14:38:48.551Z,0.77
2023-05-10T14:41:17.212Z,1.08
2023-05-10T14:43:43.907Z,0.88
2023-05-10T14:46:10.894Z,0.75
2023-05-10T14:48:37.464Z,1.08
2023-05-10T14:51:04.627Z,0.70
2023-05-10T14:53:31.212Z,0.98
2023-05-10T14:55:58.378Z,0.57
2023-05-10T14:58:25.115Z,1.52
2023-05-10T15:00:52.057Z,1.13
2023-05-10T15:03:19.150Z,1.30
2023-05-10T15:05:46.007Z,1.25
2023-05-10T15:08:13.516Z,1.02
2023-05-10T15:10:40.877Z,1.08
2023-05-10T15:13:07.363Z,1.27
2023-05-10T15:15:33.924Z,1.15
2023-05-10T15:18:00.573Z,1.27
2023-05-10T15:20:27.089Z,0.70
2023-05-10T15:22:53.625Z,1.38
2023-05-10T15:25:21.033Z,0.70
2023-05-10T15:27:47.555Z,1.05
2023-05-10T15:30:14.326Z,1.05
2023-05-10T15:32:41.611Z,0.63
2023-05-10T15:35:11.457Z,0.88
2023-05-10T15:37:38.553Z,0.75
2023-05-10T15:40:05.661Z,0.70
2023-05-10T15:42:32.801Z,0.57
2023-05-10T15:44:59.881Z,0.60
2023-05-10T15:47:28.682Z,1.45
2023-05-10T15:49:55.202Z,0.75
2023-05-10T15:52:21.922Z,0.82
2023-05-10T15:54:48.437Z,0.80
2023-05-10T15:57:14.978Z,0.85
2023-05-10T15:59:41.708Z,1.45
2023-05-10T16:02:10.808Z,1.95
2023-05-10T16:04:37.835Z,1.70
2023-05-10T16:07:04.401Z,1.13
2023-05-10T16:09:31.445Z,1.15
2023-05-10T16:11:58.898Z,1.02
2023-05-10T16:14:25.439Z,1.60
2023-05-10T16:16:52.308Z,1.40
2023-05-10T16:19:21.133Z,1.00
2023-05-10T16:21:49.939Z,0.90
2023-05-10T16:24:18.985Z,0.77
2023-05-10T16:26:46.089Z,0.90
2023-05-10T16:29:12.601Z,0.60
2023-05-10T16:31:39.476Z,1.15
2023-05-10T16:34:07.828Z,0.80
2023-05-10T16:36:35.276Z,0.93
2023-05-10T16:39:02.725Z,1.02
2023-05-10T16:41:29.604Z,1.10
2023-05-10T16:43:57.596Z,0.93
2023-05-10T16:46:24.504Z,1.20
2023-05-10T16:48:51.179Z,1.23
2023-05-10T16:51:17.880Z,0.88
2023-05-10T16:53:44.403Z,1.08
2023-05-10T16:56:11.287Z,1.20
2023-05-10T16:58:37.898Z,1.33
2023-05-10T17:01:05.181Z,1.00
2023-05-10T17:03:31.839Z,0.90
2023-05-10T17:05:59.424Z,1.15
2023-05-10T17:08:26.072Z,1.30
2023-05-10T17:10:52.616Z,1.52
2023-05-10T17:13:19.240Z,1.00
2023-05-10T17:15:47.338Z,1.30
2023-05-10T17:18:14.009Z,1.60
2023-05-10T17:20:43.307Z,1.48
2023-05-10T17:23:09.860Z,1.25
2023-05-10T17:25:36.848Z,1.20
2023-05-10T17:28:04.041Z,1.17
2023-05-10T17:30:32.738Z,1.20
2023-05-10T17:33:01.094Z,1.23
2023-05-10T17:35:27.942Z,1.15
2023-05-10T17:37:54.509Z,1.08
2023-05-10T17:40:21.222Z,1.20
2023-05-10T17:42:47.767Z,0.90
2023-05-10T17:45:15.251Z,0.95
2023-05-10T17:47:42.147Z,1.55
2023-05-10T17:50:10.103Z,1.00
2023-05-10T17:52:36.599Z,1.10
2023-05-10T17:55:03.261Z,0.60
2023-05-10T17:57:29.898Z,1.00
2023-05-10T17:59:56.623Z,0.90
2023-05-10T18:02:23.198Z,0.68
2023-05-10T18:04:49.887Z,1.30
2023-05-10T18:07:16.645Z,0.88
2023-05-10T18:09:43.254Z,0.75
2023-05-10T18:12:09.772Z,0.80
2023-05-10T18:14:41.178Z,0.90
2023-05-10T18:17:08.790Z,0.77
2023-05-10T18:19:35.459Z,1.00
2023-05-10T18:22:01.999Z,1.00
2023-05-10T18:24:38.213Z,1.33
2023-05-10T18:27:08.827Z,0.88
2023-05-10T18:29:36.282Z,0.80
2023-05-10T18:32:03.025Z,1.17
2023-05-10T18:34:30.083Z,1.20
2023-05-10T18:36:57.096Z,1.40
2023-05-10T18:39:24.341Z,1.10
2023-05-10T18:41:51.356Z,1.00
2023-05-10T18:44:19.112Z,1.38
2023-05-10T18:46:46.365Z,1.38
2023-05-10T18:49:16.409Z,1.05
2023-05-10T18:51:43.388Z,1.30
2023-05-10T18:54:10.168Z,2.22
2023-05-10T18:56:37.338Z,1.85
2023-05-10T18:59:04.019Z,1.98
2023-05-10T19:01:30.902Z,1.42
2023-05-10T19:03:57.834Z,2.25
2023-05-10T19:06:24.397Z,1.35
2023-05-10T19:08:50.924Z,2.03
2023-05-10T19:11:17.593Z,2.50
2023-05-10T19:13:46.352Z,2.20
2023-05-10T19:16:16.680Z,2.55
2023-05-10T19:18:46.690Z,1.25
2023-05-10T19:21:13.299Z,2.17
2023-05-10T19:23:42.078Z,2.08
2023-05-10T19:26:09.538Z,1.95
2023-05-10T19:28:36.701Z,2.45
2023-05-10T19:31:03.747Z,1.75
2023-05-10T19:33:30.512Z,1.67
2023-05-10T19:35:57.054Z,2.13
2023-05-10T19:38:24.365Z,2.30
2023-05-10T19:40:57.528Z,3.20
2023-05-10T19:43:28.895Z,1.73
2023-05-10T19:45:58.899Z,2.28
2023-05-10T19:48:25.894Z,1.98
2023-05-10T19:50:53.464Z,2.58
2023-05-10T19:53:20.415Z,2.10
2023-05-10T19:55:46.998Z,1.92
2023-05-10T19:58:13.574Z,1.80
2023-05-10T20:00:40.167Z,1.15
2023-05-10T20:03:09.132Z,1.38
2023-05-10T20:05:36.039Z,1.10
2023-05-10T20:08:02.685Z,1.00
2023-05-10T20:10:29.421Z,1.60
2023-05-10T20:12:55.991Z,1.15
2023-05-10T20:15:23.596Z,1.30
2023-05-10T20:17:53.308Z,1.00
2023-05-10T20:20:20.565Z,1.10
2023-05-10T20:22:48.656Z,1.75
2023-05-10T20:25:16.495Z,1.80
2023-05-10T20:27:43.276Z,2.03
2023-05-10T20:30:10.514Z,2.25
2023-05-10T20:32:37.821Z,1.70
2023-05-10T20:35:05.273Z,1.90
2023-05-10T20:37:31.956Z,1.85
2023-05-10T20:39:58.748Z,1.90
2023-05-10T20:42:25.424Z,2.35
2023-05-10T20:44:52.221Z,1.13
2023-05-10T20:47:19.058Z,1.10
2023-05-10T20:49:46.039Z,1.35
2023-05-10T20:52:13.073Z,1.38
2023-05-10T20:54:39.598Z,1.88
2023-05-10T20:57:06.388Z,1.23
2023-05-10T20:59:33.062Z,1.48
2023-05-10T21:01:59.604Z,1.35
2023-05-10T21:04:26.193Z,1.17
2023-05-10T21:06:53.353Z,1.90
2023-05-10T21:09:19.986Z,1.58
2023-05-10T21:11:46.685Z,1.73
2023-05-10T21:14:13.881Z,1.30
2023-05-10T21:16:41.227Z,1.02
2023-05-10T21:19:07.979Z,1.45
2023-05-10T21:21:34.933Z,0.98
2023-05-10T21:24:01.576Z,1.83
2023-05-10T21:26:28.695Z,1.40
2023-05-10T21:28:55.517Z,2.17
2023-05-10T21:31:22.114Z,1.45
2023-05-10T21:33:48.847Z,1.85
2023-05-10T21:36:15.442Z,2.65
2023-05-10T21:38:44.687Z,1.50
2023-05-10T21:41:11.372Z,1.40
2023-05-10T21:43:38.022Z,1.27
2023-05-10T21:46:04.786Z,1.65
2023-05-10T21:48:31.429Z,1.50
2023-05-10T21:50:58.006Z,1.40
2023-05-10T21:53:24.912Z,1.85
2023-05-10T21:55:51.511Z,1.30
2023-05-10T21:58:18.197Z,1.42
2023-05-10T22:00:44.948Z,1.35
2023-05-10T22:03:11.683Z,1.73
2023-05-10T22:05:38.693Z,1.50
2023-05-10T22:08:06.399Z,1.33
2023-05-10T22:10:33.006Z,1.60
2023-05-10T22:13:00.210Z,1.17
2023-05-10T22:15:27.168Z,1.52
2023-05-10T22:17:53.880Z,1.40
2023-05-10T22:20:21.112Z,1.45
2023-05-10T22:22:48.061Z,1.50
2023-05-10T22:25:14.664Z,1.70
2023-05-10T22:27:47.048Z,1.52
2023-05-10T22:30:13.703Z,1.67
2023-05-10T22:32:40.293Z,1.30
2023-05-10T22:35:07.675Z,1.90
2023-05-10T22:37:34.211Z,1.25
2023-05-10T22:40:00.783Z,2.38
2023-05-10T22:42:27.312Z,1.70
2023-05-10T22:44:53.838Z,1.38
2023-05-10T22:47:20.646Z,2.88
2023-05-10T22:49:47.630Z,1.73
2023-05-10T22:52:14.163Z,1.50
2023-05-10T22:54:40.698Z,1.77
2023-05-10T22:57:07.385Z,1.88
2023-05-10T22:59:34.240Z,2.22
2023-05-10T23:02:00.828Z,1.45
2023-05-10T23:04:27.468Z,2.33
2023-05-10T23:06:54.099Z,1.80
2023-05-10T23:09:20.647Z,1.38
2023-05-10T23:11:47.403Z,2.00
2023-05-10T23:14:13.912Z,2.10
2023-05-10T23:16:40.682Z,2.10
2023-05-10T23:19:07.435Z,2.05
2023-05-10T23:21:34.525Z,2.17
2023-05-10T23:24:01.482Z,2.17
2023-05-10T23:26:28.039Z,1.55
2023-05-10T23:28:54.649Z,1.88
2023-05-10T23:31:21.673Z,1.80
2023-05-10T23:33:48.188Z,1.60
2023-05-10T23:36:14.759Z,1.63
2023-05-10T23:38:41.364Z,1.55
2023-05-10T23:41:07.881Z,2.60
2023-05-10T23:43:34.422Z,1.73
2023-05-10T23:46:01.726Z,1.42
2023-05-10T23:48:28.416Z,1.63
2023-05-10T23:50:55.003Z,1.90
2023-05-10T23:53:21.852Z,1.48
2023-05-10T23:55:48.557Z,1.77
2023-05-10T23:58:15.132Z,2.65
